Terminal Aerodrome Forecast
Issued by NWS

Home | Current Version | Previous Version | Text Only | Print | Product List | Glossary On
Versions: 1 2 3 4 5 6 7 8 9 10 11 12 13 14 15 16 17 18 19 20 21 22 23 24 25 26
000
FTUS44 KHGX 030520
TAFSGR
TAF
KSGR 030520Z 0306/0406 18006KT P6SM SKC
      TEMPO 0310/0312 10003KT MIFG
     FM031600 17008KT P6SM FEW040 SCT250
     FM032100 16012KT P6SM FEW050
     FM040200 16004KT P6SM SCT250=

USA.gov is the U.S. government's official web portal to all federal, state and local government web resources and services.